sensor_id;sensor_type;location;lat;lon;timestamp;temperature;humidity
30371;DHT22;17164;48.590;11.410;2023-06-10T00:02:07;16.20;99.90
30371;DHT22;17164;48.590;11.410;2023-06-10T00:04:33;16.10;99.90
30371;DHT22;17164;48.590;11.410;2023-06-10T00:06:59;16.00;99.90
30371;DHT22;17164;48.590;11.410;2023-06-10T00:09:24;15.90;99.90
30371;DHT22;17164;48.590;11.410;2023-06-10T00:11:51;15.80;99.90
30371;DHT22;17164;48.590;11.410;2023-06-10T00:14:16;15.70;99.90
30371;DHT22;17164;48.590;11.410;2023-06-10T00:16:42;15.60;99.90
30371;DHT22;17164;48.590;11.410;2023-06-10T00:19:10;15.50;99.90
30371;DHT22;17164;48.590;11.410;2023-06-10T00:21:39;15.40;99.90
30371;DHT22;17164;48.590;11.410;2023-06-10T00:24:10;15.40;99.90
30371;DHT22;17164;48.590;11.410;2023-06-10T00:26:38;15.30;99.90
30371;DHT22;17164;48.590;11.410;2023-06-10T00:29:03;15.20;99.90
30371;DHT22;17164;48.590;11.410;2023-06-10T00:31:29;15.10;99.90
30371;DHT22;17164;48.590;11.410;2023-06-10T00:33:55;15.10;99.90
30371;DHT22;17164;48.590;11.410;2023-06-10T00:36:21;15.10;99.90
30371;DHT22;17164;48.590;11.410;2023-06-10T00:38:46;15.00;99.90
30371;DHT22;17164;48.590;11.410;2023-06-10T00:41:12;15.00;99.90
30371;DHT22;17164;48.590;11.410;2023-06-10T00:43:38;15.00;99.90
30371;DHT22;17164;48.590;11.410;2023-06-10T00:46:03;15.00;99.90
30371;DHT22;17164;48.590;11.410;2023-06-10T00:48:29;15.00;99.90
30371;DHT22;17164;48.590;11.410;2023-06-10T00:50:55;15.00;99.90
30371;DHT22;17164;48.590;11.410;2023-06-10T00:53:22;15.00;99.90
30371;DHT22;17164;48.590;11.410;2023-06-10T00:55:48;15.00;99.90
30371;DHT22;17164;48.590;11.410;2023-06-10T00:58:14;15.00;99.90
30371;DHT22;17164;48.590;11.410;2023-06-10T01:00:41;15.10;99.90
30371;DHT22;17164;48.590;11.410;2023-06-10T01:03:06;15.00;99.90
30371;DHT22;17164;48.590;11.410;2023-06-10T01:05:37;15.00;99.90
30371;DHT22;17164;48.590;11.410;2023-06-10T01:08:15;15.00;99.90
30371;DHT22;17164;48.590;11.410;2023-06-10T01:10:53;15.00;99.90
30371;DHT22;17164;48.590;11.410;2023-06-10T01:13:22;15.10;99.90
30371;DHT22;17164;48.590;11.410;2023-06-10T01:15:50;15.10;99.90
30371;DHT22;17164;48.590;11.410;2023-06-10T01:18:16;15.10;99.90
30371;DHT22;17164;48.590;11.410;2023-06-10T01:20:43;15.10;99.90
30371;DHT22;17164;48.590;11.410;2023-06-10T01:23:10;15.10;99.90
30371;DHT22;17164;48.590;11.410;2023-06-10T01:25:41;15.10;99.90
30371;DHT22;17164;48.590;11.410;2023-06-10T01:33:31;15.10;99.90
30371;DHT22;17164;48.590;11.410;2023-06-10T01:35:58;15.10;99.90
30371;DHT22;17164;48.590;11.410;2023-06-10T01:38:26;15.00;99.90
30371;DHT22;17164;48.590;11.410;2023-06-10T01:40:55;15.00;99.90
30371;DHT22;17164;48.590;11.410;2023-06-10T01:43:22;14.90;99.90
30371;DHT22;17164;48.590;11.410;2023-06-10T01:45:47;14.90;99.90
30371;DHT22;17164;48.590;11.410;2023-06-10T01:48:13;14.80;99.90
30371;DHT22;17164;48.590;11.410;2023-06-10T01:50:39;14.70;99.90
30371;DHT22;17164;48.590;11.410;2023-06-10T01:53:04;14.70;99.90
30371;DHT22;17164;48.590;11.410;2023-06-10T01:55:33;14.60;99.90
30371;DHT22;17164;48.590;11.410;2023-06-10T01:57:59;14.60;99.90
30371;DHT22;17164;48.590;11.410;2023-06-10T02:00:24;14.60;99.90
30371;DHT22;17164;48.590;11.410;2023-06-10T02:02:50;14.50;99.90
30371;DHT22;17164;48.590;11.410;2023-06-10T02:05:16;14.50;99.90
30371;DHT22;17164;48.590;11.410;2023-06-10T02:07:41;14.40;99.90
30371;DHT22;17164;48.590;11.410;2023-06-10T02:10:07;14.40;99.90
30371;DHT22;17164;48.590;11.410;2023-06-10T02:12:33;14.40;99.90
30371;DHT22;17164;48.590;11.410;2023-06-10T02:14:58;14.30;99.90
30371;DHT22;17164;48.590;11.410;2023-06-10T02:17:24;14.30;99.90
30371;DHT22;17164;48.590;11.410;2023-06-10T02:19:50;14.20;99.90
30371;DHT22;17164;48.590;11.410;2023-06-10T02:22:22;14.20;99.90
30371;DHT22;17164;48.590;11.410;2023-06-10T02:24:48;14.10;99.90
30371;DHT22;17164;48.590;11.410;2023-06-10T02:27:15;14.10;99.90
30371;DHT22;17164;48.590;11.410;2023-06-10T02:29:41;14.10;99.90
30371;DHT22;17164;48.590;11.410;2023-06-10T02:32:08;14.00;99.90
30371;DHT22;17164;48.590;11.410;2023-06-10T02:34:33;14.00;99.90
30371;DHT22;17164;48.590;11.410;2023-06-10T02:37:00;13.90;99.90
30371;DHT22;17164;48.590;11.410;2023-06-10T02:39:26;13.90;99.90
30371;DHT22;17164;48.590;11.410;2023-06-10T02:41:51;13.80;99.90
30371;DHT22;17164;48.590;11.410;2023-06-10T02:44:20;13.80;99.90
30371;DHT22;17164;48.590;11.410;2023-06-10T02:46:46;13.80;99.90
30371;DHT22;17164;48.590;11.410;2023-06-10T02:49:12;13.70;99.90
30371;DHT22;17164;48.590;11.410;2023-06-10T02:51:38;13.70;99.90
30371;DHT22;17164;48.590;11.410;2023-06-10T02:54:04;13.70;99.90
30371;DHT22;17164;48.590;11.410;2023-06-10T02:56:30;13.60;99.90
30371;DHT22;17164;48.590;11.410;2023-06-10T02:58:57;13.60;99.90
30371;DHT22;17164;48.590;11.410;2023-06-10T03:01:23;13.60;99.90
30371;DHT22;17164;48.590;11.410;2023-06-10T03:03:48;13.50;99.90
30371;DHT22;17164;48.590;11.410;2023-06-10T03:06:16;13.50;99.90
30371;DHT22;17164;48.590;11.410;2023-06-10T03:08:42;13.50;99.90
30371;DHT22;17164;48.590;11.410;2023-06-10T03:11:08;13.50;99.90
30371;DHT22;17164;48.590;11.410;2023-06-10T03:13:33;13.50;99.90
30371;DHT22;17164;48.590;11.410;2023-06-10T03:15:59;13.40;99.90
30371;DHT22;17164;48.590;11.410;2023-06-10T03:18:28;13.50;99.90
30371;DHT22;17164;48.590;11.410;2023-06-10T03:20:54;13.50;99.90
30371;DHT22;17164;48.590;11.410;2023-06-10T03:23:20;13.50;99.90
30371;DHT22;17164;48.590;11.410;2023-06-10T03:25:46;13.50;99.90
30371;DHT22;17164;48.590;11.410;2023-06-10T03:28:12;13.50;99.90
30371;DHT22;17164;48.590;11.410;2023-06-10T03:30:37;13.50;99.90
30371;DHT22;17164;48.590;11.410;2023-06-10T03:33:03;13.50;99.90
30371;DHT22;17164;48.590;11.410;2023-06-10T03:35:29;13.50;99.90
30371;DHT22;17164;48.590;11.410;2023-06-10T03:37:55;13.50;99.90
30371;DHT22;17164;48.590;11.410;2023-06-10T03:40:20;13.40;99.90
30371;DHT22;17164;48.590;11.410;2023-06-10T03:42:46;13.40;99.90
30371;DHT22;17164;48.590;11.410;2023-06-10T03:45:12;13.40;99.90
30371;DHT22;17164;48.590;11.410;2023-06-10T03:47:38;13.40;99.90
30371;DHT22;17164;48.590;11.410;2023-06-10T03:50:06;13.40;99.90
30371;DHT22;17164;48.590;11.410;2023-06-10T03:52:33;13.40;99.90
30371;DHT22;17164;48.590;11.410;2023-06-10T03:54:59;13.40;99.90
30371;DHT22;17164;48.590;11.410;2023-06-10T03:57:25;13.40;99.90
30371;DHT22;17164;48.590;11.410;2023-06-10T03:59:51;13.40;99.90
30371;DHT22;17164;48.590;11.410;2023-06-10T04:02:17;13.40;99.90
30371;DHT22;17164;48.590;11.410;2023-06-10T04:04:43;13.40;99.90
30371;DHT22;17164;48.590;11.410;2023-06-10T04:07:08;13.40;99.90
30371;DHT22;17164;48.590;11.410;2023-06-10T04:09:34;13.40;99.90
30371;DHT22;17164;48.590;11.410;2023-06-10T04:12:01;13.40;99.90
30371;DHT22;17164;48.590;11.410;2023-06-10T04:14:27;13.50;99.90
30371;DHT22;17164;48.590;11.410;2023-06-10T04:16:53;13.50;99.90
30371;DHT22;17164;48.590;11.410;2023-06-10T04:19:18;13.60;99.90
30371;DHT22;17164;48.590;11.410;2023-06-10T04:21:44;13.70;99.90
30371;DHT22;17164;48.590;11.410;2023-06-10T04:24:09;13.70;99.90
30371;DHT22;17164;48.590;11.410;2023-06-10T04:26:35;13.80;99.90
30371;DHT22;17164;48.590;11.410;2023-06-10T04:29:02;13.80;99.90
30371;DHT22;17164;48.590;11.410;2023-06-10T04:31:27;13.90;99.90
30371;DHT22;17164;48.590;11.410;2023-06-10T04:33:53;13.90;99.90
30371;DHT22;17164;48.590;11.410;2023-06-10T04:36:20;14.00;99.90
30371;DHT22;17164;48.590;11.410;2023-06-10T04:38:45;14.00;99.90
30371;DHT22;17164;48.590;11.410;2023-06-10T04:41:12;14.10;99.90
30371;DHT22;17164;48.590;11.410;2023-06-10T04:43:38;14.20;99.90
30371;DHT22;17164;48.590;11.410;2023-06-10T04:46:04;14.20;99.90
30371;DHT22;17164;48.590;11.410;2023-06-10T04:48:29;14.30;99.90
30371;DHT22;17164;48.590;11.410;2023-06-10T04:50:55;14.40;99.90
30371;DHT22;17164;48.590;11.410;2023-06-10T04:53:22;14.40;99.90
30371;DHT22;17164;48.590;11.410;2023-06-10T04:55:47;14.50;99.90
30371;DHT22;17164;48.590;11.410;2023-06-10T04:58:14;14.60;99.90
30371;DHT22;17164;48.590;11.410;2023-06-10T05:00:40;14.70;99.90
30371;DHT22;17164;48.590;11.410;2023-06-10T05:03:05;14.70;99.90
30371;DHT22;17164;48.590;11.410;2023-06-10T05:05:31;14.80;99.90
30371;DHT22;17164;48.590;11.410;2023-06-10T05:07:56;14.90;99.90
30371;DHT22;17164;48.590;11.410;2023-06-10T05:10:22;15.00;99.90
30371;DHT22;17164;48.590;11.410;2023-06-10T05:12:48;15.10;99.90
30371;DHT22;17164;48.590;11.410;2023-06-10T05:15:14;15.20;99.90
30371;DHT22;17164;48.590;11.410;2023-06-10T05:17:39;15.20;99.90
30371;DHT22;17164;48.590;11.410;2023-06-10T05:20:05;15.30;99.90
30371;DHT22;17164;48.590;11.410;2023-06-10T05:22:31;15.40;99.90
30371;DHT22;17164;48.590;11.410;2023-06-10T05:24:57;15.40;99.90
30371;DHT22;17164;48.590;11.410;2023-06-10T05:27:23;15.50;99.90
30371;DHT22;17164;48.590;11.410;2023-06-10T05:29:48;15.60;99.90
30371;DHT22;17164;48.590;11.410;2023-06-10T05:32:14;15.70;99.90
30371;DHT22;17164;48.590;11.410;2023-06-10T05:34:40;15.80;99.90
30371;DHT22;17164;48.590;11.410;2023-06-10T05:37:06;15.90;99.90
30371;DHT22;17164;48.590;11.410;2023-06-10T05:39:31;16.00;99.90
30371;DHT22;17164;48.590;11.410;2023-06-10T05:41:57;16.10;99.90
30371;DHT22;17164;48.590;11.410;2023-06-10T05:44:24;16.20;99.90
30371;DHT22;17164;48.590;11.410;2023-06-10T05:46:51;16.30;99.90
30371;DHT22;17164;48.590;11.410;2023-06-10T05:49:16;16.40;99.90
30371;DHT22;17164;48.590;11.410;2023-06-10T05:51:42;16.50;99.90
30371;DHT22;17164;48.590;11.410;2023-06-10T05:54:07;16.60;99.90
30371;DHT22;17164;48.590;11.410;2023-06-10T05:56:33;16.70;99.90
30371;DHT22;17164;48.590;11.410;2023-06-10T05:58:59;16.80;99.90
30371;DHT22;17164;48.590;11.410;2023-06-10T06:01:25;16.80;99.90
30371;DHT22;17164;48.590;11.410;2023-06-10T06:03:50;16.90;99.90
30371;DHT22;17164;48.590;11.410;2023-06-10T06:06:16;16.90;99.90
30371;DHT22;17164;48.590;11.410;2023-06-10T06:08:41;17.00;99.90
30371;DHT22;17164;48.590;11.410;2023-06-10T06:11:07;17.10;99.90
30371;DHT22;17164;48.590;11.410;2023-06-10T06:13:33;17.20;99.90
30371;DHT22;17164;48.590;11.410;2023-06-10T06:15:58;17.30;99.90
30371;DHT22;17164;48.590;11.410;2023-06-10T06:18:24;17.30;99.90
30371;DHT22;17164;48.590;11.410;2023-06-10T06:20:50;17.40;99.90
30371;DHT22;17164;48.590;11.410;2023-06-10T06:23:15;17.50;99.90
30371;DHT22;17164;48.590;11.410;2023-06-10T06:25:41;17.60;99.90
30371;DHT22;17164;48.590;11.410;2023-06-10T06:28:07;17.60;99.90
30371;DHT22;17164;48.590;11.410;2023-06-10T06:30:34;17.70;99.90
30371;DHT22;17164;48.590;11.410;2023-06-10T06:33:00;17.80;99.90
30371;DHT22;17164;48.590;11.410;2023-06-10T06:35:26;17.90;99.90
30371;DHT22;17164;48.590;11.410;2023-06-10T06:37:52;17.90;99.90
30371;DHT22;17164;48.590;11.410;2023-06-10T06:40:17;18.00;99.90
30371;DHT22;17164;48.590;11.410;2023-06-10T06:42:43;18.20;99.90
30371;DHT22;17164;48.590;11.410;2023-06-10T06:45:10;18.20;99.90
30371;DHT22;17164;48.590;11.410;2023-06-10T06:47:35;18.30;99.90
30371;DHT22;17164;48.590;11.410;2023-06-10T06:50:01;18.40;99.90
30371;DHT22;17164;48.590;11.410;2023-06-10T06:52:28;18.50;99.90
30371;DHT22;17164;48.590;11.410;2023-06-10T06:54:54;18.60;99.90
30371;DHT22;17164;48.590;11.410;2023-06-10T06:57:19;18.70;99.90
30371;DHT22;17164;48.590;11.410;2023-06-10T06:59:45;18.80;99.90
30371;DHT22;17164;48.590;11.410;2023-06-10T07:02:11;18.80;99.90
30371;DHT22;17164;48.590;11.410;2023-06-10T07:04:36;18.90;99.90
30371;DHT22;17164;48.590;11.410;2023-06-10T07:07:02;19.00;99.90
30371;DHT22;17164;48.590;11.410;2023-06-10T07:09:28;19.10;99.90
30371;DHT22;17164;48.590;11.410;2023-06-10T07:11:53;19.30;99.90
30371;DHT22;17164;48.590;11.410;2023-06-10T07:14:19;19.30;99.90
30371;DHT22;17164;48.590;11.410;2023-06-10T07:16:44;19.40;99.90
30371;DHT22;17164;48.590;11.410;2023-06-10T07:19:11;19.50;99.90
30371;DHT22;17164;48.590;11.410;2023-06-10T07:21:37;19.50;99.90
30371;DHT22;17164;48.590;11.410;2023-06-10T07:24:03;19.60;99.90
30371;DHT22;17164;48.590;11.410;2023-06-10T07:26:29;19.70;99.90
30371;DHT22;17164;48.590;11.410;2023-06-10T07:28:54;19.80;99.90
30371;DHT22;17164;48.590;11.410;2023-06-10T07:31:21;19.90;99.90
30371;DHT22;17164;48.590;11.410;2023-06-10T07:33:47;20.00;99.90
30371;DHT22;17164;48.590;11.410;2023-06-10T07:36:12;20.10;99.90
30371;DHT22;17164;48.590;11.410;2023-06-10T07:38:38;20.20;99.90
30371;DHT22;17164;48.590;11.410;2023-06-10T07:41:04;20.30;99.90
30371;DHT22;17164;48.590;11.410;2023-06-10T07:43:30;20.40;99.90
30371;DHT22;17164;48.590;11.410;2023-06-10T07:45:55;20.40;99.90
30371;DHT22;17164;48.590;11.410;2023-06-10T07:48:21;20.50;99.90
30371;DHT22;17164;48.590;11.410;2023-06-10T07:50:46;20.60;99.90
30371;DHT22;17164;48.590;11.410;2023-06-10T07:53:12;20.60;99.90
30371;DHT22;17164;48.590;11.410;2023-06-10T07:55:37;20.70;99.90
30371;DHT22;17164;48.590;11.410;2023-06-10T07:58:03;20.70;99.90
30371;DHT22;17164;48.590;11.410;2023-06-10T08:00:29;20.70;99.90
30371;DHT22;17164;48.590;11.410;2023-06-10T08:02:54;20.70;99.90
30371;DHT22;17164;48.590;11.410;2023-06-10T08:05:21;20.70;99.90
30371;DHT22;17164;48.590;11.410;2023-06-10T08:07:46;20.60;99.90
30371;DHT22;17164;48.590;11.410;2023-06-10T08:10:12;20.50;99.90
30371;DHT22;17164;48.590;11.410;2023-06-10T08:12:37;20.50;99.90
30371;DHT22;17164;48.590;11.410;2023-06-10T08:15:04;20.60;99.90
30371;DHT22;17164;48.590;11.410;2023-06-10T08:17:32;20.70;99.90
30371;DHT22;17164;48.590;11.410;2023-06-10T08:19:58;20.70;99.90
30371;DHT22;17164;48.590;11.410;2023-06-10T08:22:23;20.90;99.90
30371;DHT22;17164;48.590;11.410;2023-06-10T08:24:49;21.00;99.90
30371;DHT22;17164;48.590;11.410;2023-06-10T08:27:15;21.30;99.90
30371;DHT22;17164;48.590;11.410;2023-06-10T08:29:40;21.50;99.90
30371;DHT22;17164;48.590;11.410;2023-06-10T08:32:06;21.60;99.90
30371;DHT22;17164;48.590;11.410;2023-06-10T08:34:35;21.60;99.90
30371;DHT22;17164;48.590;11.410;2023-06-10T08:37:02;21.60;99.90
30371;DHT22;17164;48.590;11.410;2023-06-10T08:39:28;21.60;99.90
30371;DHT22;17164;48.590;11.410;2023-06-10T08:44:36;21.70;99.90
30371;DHT22;17164;48.590;11.410;2023-06-10T08:47:08;21.80;99.90
30371;DHT22;17164;48.590;11.410;2023-06-10T08:49:38;21.90;99.90
30371;DHT22;17164;48.590;11.410;2023-06-10T08:52:06;22.00;99.90
30371;DHT22;17164;48.590;11.410;2023-06-10T08:54:33;22.10;99.90
30371;DHT22;17164;48.590;11.410;2023-06-10T08:57:05;22.30;99.90
30371;DHT22;17164;48.590;11.410;2023-06-10T08:59:34;22.40;99.90
30371;DHT22;17164;48.590;11.410;2023-06-10T09:02:00;22.40;99.90
30371;DHT22;17164;48.590;11.410;2023-06-10T09:04:27;22.30;99.90
30371;DHT22;17164;48.590;11.410;2023-06-10T09:06:53;22.30;99.90
30371;DHT22;17164;48.590;11.410;2023-06-10T09:09:21;22.40;99.90
30371;DHT22;17164;48.590;11.410;2023-06-10T09:11:48;22.30;99.90
30371;DHT22;17164;48.590;11.410;2023-06-10T09:14:13;22.30;99.90
30371;DHT22;17164;48.590;11.410;2023-06-10T09:16:40;22.20;99.90
30371;DHT22;17164;48.590;11.410;2023-06-10T09:19:06;22.20;99.90
30371;DHT22;17164;48.590;11.410;2023-06-10T09:21:35;22.10;99.90
30371;DHT22;17164;48.590;11.410;2023-06-10T09:24:05;22.00;99.90
30371;DHT22;17164;48.590;11.410;2023-06-10T09:26:30;21.90;99.90
30371;DHT22;17164;48.590;11.410;2023-06-10T09:29:07;21.90;99.90
30371;DHT22;17164;48.590;11.410;2023-06-10T09:31:38;22.10;99.90
30371;DHT22;17164;48.590;11.410;2023-06-10T09:34:10;22.40;99.90
30371;DHT22;17164;48.590;11.410;2023-06-10T09:36:37;22.50;99.90
30371;DHT22;17164;48.590;11.410;2023-06-10T09:39:03;22.50;99.90
30371;DHT22;17164;48.590;11.410;2023-06-10T09:41:39;22.50;99.90
30371;DHT22;17164;48.590;11.410;2023-06-10T09:44:14;22.40;99.90
30371;DHT22;17164;48.590;11.410;2023-06-10T09:46:41;22.40;99.90
30371;DHT22;17164;48.590;11.410;2023-06-10T09:49:07;22.40;99.90
30371;DHT22;17164;48.590;11.410;2023-06-10T09:51:33;22.50;99.90
30371;DHT22;17164;48.590;11.410;2023-06-10T09:53:59;22.60;99.90
30371;DHT22;17164;48.590;11.410;2023-06-10T09:56:34;22.80;99.90
30371;DHT22;17164;48.590;11.410;2023-06-10T09:59:00;22.80;99.90
30371;DHT22;17164;48.590;11.410;2023-06-10T10:01:26;22.80;99.90
30371;DHT22;17164;48.590;11.410;2023-06-10T10:03:52;22.70;99.90
30371;DHT22;17164;48.590;11.410;2023-06-10T10:06:19;22.60;99.90
30371;DHT22;17164;48.590;11.410;2023-06-10T10:08:46;22.50;99.90
30371;DHT22;17164;48.590;11.410;2023-06-10T10:11:12;22.40;99.90
30371;DHT22;17164;48.590;11.410;2023-06-10T10:13:39;22.30;99.90
30371;DHT22;17164;48.590;11.410;2023-06-10T10:16:17;22.30;99.90
30371;DHT22;17164;48.590;11.410;2023-06-10T10:19:00;22.30;99.90
30371;DHT22;17164;48.590;11.410;2023-06-10T10:21:32;22.30;99.90
30371;DHT22;17164;48.590;11.410;2023-06-10T10:24:15;22.30;99.90
30371;DHT22;17164;48.590;11.410;2023-06-10T10:26:42;22.40;99.90
30371;DHT22;17164;48.590;11.410;2023-06-10T10:29:14;22.50;99.90
30371;DHT22;17164;48.590;11.410;2023-06-10T10:31:42;22.60;99.90
30371;DHT22;17164;48.590;11.410;2023-06-10T10:34:24;22.80;99.90
30371;DHT22;17164;48.590;11.410;2023-06-10T10:36:52;22.80;99.90
30371;DHT22;17164;48.590;11.410;2023-06-10T10:39:19;23.00;99.90
30371;DHT22;17164;48.590;11.410;2023-06-10T10:41:45;23.20;99.90
30371;DHT22;17164;48.590;11.410;2023-06-10T10:44:12;23.30;99.90
30371;DHT22;17164;48.590;11.410;2023-06-10T10:46:49;23.40;99.90
30371;DHT22;17164;48.590;11.410;2023-06-10T10:49:15;23.20;99.90
30371;DHT22;17164;48.590;11.410;2023-06-10T10:52:10;23.20;99.90
30371;DHT22;17164;48.590;11.410;2023-06-10T10:54:36;23.00;99.90
30371;DHT22;17164;48.590;11.410;2023-06-10T10:57:14;22.80;99.90
30371;DHT22;17164;48.590;11.410;2023-06-10T10:59:52;22.80;99.90
30371;DHT22;17164;48.590;11.410;2023-06-10T11:02:43;22.60;99.90
30371;DHT22;17164;48.590;11.410;2023-06-10T11:05:10;22.50;99.90
30371;DHT22;17164;48.590;11.410;2023-06-10T11:07:37;22.50;99.90
30371;DHT22;17164;48.590;11.410;2023-06-10T11:10:11;22.40;99.90
30371;DHT22;17164;48.590;11.410;2023-06-10T11:15:32;22.30;99.90
30371;DHT22;17164;48.590;11.410;2023-06-10T11:18:25;22.30;99.90
30371;DHT22;17164;48.590;11.410;2023-06-10T11:31:33;22.80;99.90
30371;DHT22;17164;48.590;11.410;2023-06-10T11:34:01;22.90;99.90
30371;DHT22;17164;48.590;11.410;2023-06-10T11:36:28;23.00;99.90
30371;DHT22;17164;48.590;11.410;2023-06-10T11:38:59;23.10;99.90
30371;DHT22;17164;48.590;11.410;2023-06-10T11:41:26;23.20;99.90
30371;DHT22;17164;48.590;11.410;2023-06-10T11:43:55;23.30;99.90
30371;DHT22;17164;48.590;11.410;2023-06-10T11:46:24;23.40;99.90
30371;DHT22;17164;48.590;11.410;2023-06-10T11:48:55;23.50;99.90
30371;DHT22;17164;48.590;11.410;2023-06-10T11:51:21;23.50;99.90
30371;DHT22;17164;48.590;11.410;2023-06-10T11:53:47;23.60;99.90
30371;DHT22;17164;48.590;11.410;2023-06-10T11:56:19;23.60;99.90
30371;DHT22;17164;48.590;11.410;2023-06-10T11:58:45;23.70;99.90
30371;DHT22;17164;48.590;11.410;2023-06-10T12:01:11;23.80;99.90
30371;DHT22;17164;48.590;11.410;2023-06-10T12:03:44;23.90;99.90
30371;DHT22;17164;48.590;11.410;2023-06-10T12:06:10;24.10;99.90
30371;DHT22;17164;48.590;11.410;2023-06-10T12:08:41;24.10;99.10
30371;DHT22;17164;48.590;11.410;2023-06-10T12:11:07;24.10;99.00
30371;DHT22;17164;48.590;11.410;2023-06-10T12:13:33;24.00;99.10
30371;DHT22;17164;48.590;11.410;2023-06-10T12:16:09;23.90;99.90
30371;DHT22;17164;48.590;11.410;2023-06-10T12:18:35;23.90;99.30
30371;DHT22;17164;48.590;11.410;2023-06-10T12:21:00;23.90;99.10
30371;DHT22;17164;48.590;11.410;2023-06-10T12:23:26;23.90;99.90
30371;DHT22;17164;48.590;11.410;2023-06-10T12:25:53;23.90;99.80
30371;DHT22;17164;48.590;11.410;2023-06-10T12:28:26;23.80;99.90
30371;DHT22;17164;48.590;11.410;2023-06-10T12:31:06;23.80;99.90
30371;DHT22;17164;48.590;11.410;2023-06-10T12:33:33;23.80;99.90
30371;DHT22;17164;48.590;11.410;2023-06-10T12:35:58;23.90;98.90
30371;DHT22;17164;48.590;11.410;2023-06-10T12:38:25;24.00;98.50
30371;DHT22;17164;48.590;11.410;2023-06-10T12:40:53;24.20;99.30
30371;DHT22;17164;48.590;11.410;2023-06-10T12:43:23;24.40;99.00
30371;DHT22;17164;48.590;11.410;2023-06-10T12:45:49;24.60;98.80
30371;DHT22;17164;48.590;11.410;2023-06-10T12:48:22;24.70;98.90
30371;DHT22;17164;48.590;11.410;2023-06-10T12:50:56;24.70;97.90
30371;DHT22;17164;48.590;11.410;2023-06-10T12:53:23;24.70;97.50
30371;DHT22;17164;48.590;11.410;2023-06-10T12:55:50;24.80;97.50
30371;DHT22;17164;48.590;11.410;2023-06-10T12:58:16;24.70;96.00
30371;DHT22;17164;48.590;11.410;2023-06-10T13:00:42;24.70;95.90
30371;DHT22;17164;48.590;11.410;2023-06-10T13:03:09;24.70;96.50
30371;DHT22;17164;48.590;11.410;2023-06-10T13:05:38;24.80;96.30
30371;DHT22;17164;48.590;11.410;2023-06-10T13:08:05;24.80;95.50
30371;DHT22;17164;48.590;11.410;2023-06-10T13:10:31;25.00;95.30
30371;DHT22;17164;48.590;11.410;2023-06-10T13:12:57;25.20;95.50
30371;DHT22;17164;48.590;11.410;2023-06-10T13:15:22;25.40;96.20
30371;DHT22;17164;48.590;11.410;2023-06-10T13:17:48;25.60;94.90
30371;DHT22;17164;48.590;11.410;2023-06-10T13:20:17;25.80;94.00
30371;DHT22;17164;48.590;11.410;2023-06-10T13:22:43;25.70;94.20
30371;DHT22;17164;48.590;11.410;2023-06-10T13:25:09;25.70;94.70
30371;DHT22;17164;48.590;11.410;2023-06-10T13:27:38;25.80;93.70
30371;DHT22;17164;48.590;11.410;2023-06-10T13:30:05;25.80;93.50
30371;DHT22;17164;48.590;11.410;2023-06-10T13:32:31;25.90;94.00
30371;DHT22;17164;48.590;11.410;2023-06-10T13:34:57;26.00;93.70
30371;DHT22;17164;48.590;11.410;2023-06-10T13:37:23;26.10;93.30
30371;DHT22;17164;48.590;11.410;2023-06-10T13:39:48;26.20;93.10
30371;DHT22;17164;48.590;11.410;2023-06-10T13:42:19;26.30;92.30
30371;DHT22;17164;48.590;11.410;2023-06-10T13:44:46;26.50;93.20
30371;DHT22;17164;48.590;11.410;2023-06-10T13:47:13;26.70;92.90
30371;DHT22;17164;48.590;11.410;2023-06-10T13:49:38;26.80;92.10
30371;DHT22;17164;48.590;11.410;2023-06-10T13:52:06;26.90;92.20
30371;DHT22;17164;48.590;11.410;2023-06-10T13:54:32;27.00;92.30
30371;DHT22;17164;48.590;11.410;2023-06-10T13:56:57;26.90;91.00
30371;DHT22;17164;48.590;11.410;2023-06-10T13:59:23;26.70;91.20
30371;DHT22;17164;48.590;11.410;2023-06-10T14:01:49;26.50;90.70
30371;DHT22;17164;48.590;11.410;2023-06-10T14:04:14;26.20;90.20
30371;DHT22;17164;48.590;11.410;2023-06-10T14:06:40;25.90;90.70
30371;DHT22;17164;48.590;11.410;2023-06-10T14:09:06;25.50;92.30
30371;DHT22;17164;48.590;11.410;2023-06-10T14:11:32;25.20;92.60
30371;DHT22;17164;48.590;11.410;2023-06-10T14:13:58;25.00;93.10
30371;DHT22;17164;48.590;11.410;2023-06-10T14:16:24;24.70;93.80
30371;DHT22;17164;48.590;11.410;2023-06-10T14:18:50;24.60;94.90
30371;DHT22;17164;48.590;11.410;2023-06-10T14:21:19;24.40;95.80
30371;DHT22;17164;48.590;11.410;2023-06-10T14:23:44;24.40;96.70
30371;DHT22;17164;48.590;11.410;2023-06-10T14:26:11;24.60;95.70
30371;DHT22;17164;48.590;11.410;2023-06-10T14:28:36;24.90;96.00
30371;DHT22;17164;48.590;11.410;2023-06-10T14:31:02;25.30;95.80
30371;DHT22;17164;48.590;11.410;2023-06-10T14:33:28;25.70;94.70
30371;DHT22;17164;48.590;11.410;2023-06-10T14:35:54;26.10;92.90
30371;DHT22;17164;48.590;11.410;2023-06-10T14:38:20;26.50;92.50
30371;DHT22;17164;48.590;11.410;2023-06-10T14:40:45;26.80;91.40
30371;DHT22;17164;48.590;11.410;2023-06-10T14:43:11;27.10;90.90
30371;DHT22;17164;48.590;11.410;2023-06-10T14:45:37;27.20;89.70
30371;DHT22;17164;48.590;11.410;2023-06-10T14:48:04;27.10;90.20
30371;DHT22;17164;48.590;11.410;2023-06-10T14:50:30;26.90;87.10
30371;DHT22;17164;48.590;11.410;2023-06-10T14:52:55;26.70;88.70
30371;DHT22;17164;48.590;11.410;2023-06-10T14:55:21;26.40;89.60
30371;DHT22;17164;48.590;11.410;2023-06-10T14:57:48;26.10;88.90
30371;DHT22;17164;48.590;11.410;2023-06-10T15:00:14;25.80;89.70
30371;DHT22;17164;48.590;11.410;2023-06-10T15:02:42;25.60;91.10
30371;DHT22;17164;48.590;11.410;2023-06-10T15:05:08;25.30;91.80
30371;DHT22;17164;48.590;11.410;2023-06-10T15:07:34;25.10;92.60
30371;DHT22;17164;48.590;11.410;2023-06-10T15:09:59;24.90;93.00
30371;DHT22;17164;48.590;11.410;2023-06-10T15:12:25;24.80;93.80
30371;DHT22;17164;48.590;11.410;2023-06-10T15:14:51;24.60;93.80
30371;DHT22;17164;48.590;11.410;2023-06-10T15:17:16;24.60;94.60
30371;DHT22;17164;48.590;11.410;2023-06-10T15:19:42;24.40;94.60
30371;DHT22;17164;48.590;11.410;2023-06-10T15:22:08;24.30;95.70
30371;DHT22;17164;48.590;11.410;2023-06-10T15:24:33;24.20;95.30
30371;DHT22;17164;48.590;11.410;2023-06-10T15:26:59;24.20;95.90
30371;DHT22;17164;48.590;11.410;2023-06-10T15:29:24;24.30;96.40
30371;DHT22;17164;48.590;11.410;2023-06-10T15:31:50;24.60;96.70
30371;DHT22;17164;48.590;11.410;2023-06-10T15:34:16;24.90;96.00
30371;DHT22;17164;48.590;11.410;2023-06-10T15:36:41;25.30;94.60